createdAt,value
2023-02-18T00:00:28.544Z,51.73
2023-02-18T00:02:55.982Z,51.80
2023-02-18T00:05:23.273Z,51.64
2023-02-18T00:07:50.558Z,52.34
2023-02-18T00:10:17.435Z,51.77
2023-02-18T00:12:44.665Z,52.22
2023-02-18T00:15:11.546Z,51.91
2023-02-18T00:17:38.082Z,52.18
2023-02-18T00:20:06.993Z,51.97
2023-02-18T00:22:33.529Z,52.25
2023-02-18T00:25:00.044Z,51.76
2023-02-18T00:27:26.527Z,52.13
2023-02-18T00:29:53.113Z,52.10
2023-02-18T00:32:19.725Z,51.71
2023-02-18T00:34:46.272Z,51.54
2023-02-18T00:37:12.743Z,52.37
2023-02-18T00:39:39.273Z,52.02
2023-02-18T00:42:05.862Z,52.00
2023-02-18T00:44:32.341Z,52.43
2023-02-18T00:46:58.909Z,51.67
2023-02-18T00:49:25.534Z,51.79
2023-02-18T00:51:52.071Z,52.27
2023-02-18T00:54:18.597Z,51.80
2023-02-18T00:56:45.134Z,51.57
2023-02-18T00:59:11.778Z,51.81
2023-02-18T01:01:38.331Z,51.69
2023-02-18T01:04:05.415Z,52.33
2023-02-18T01:06:32.110Z,52.07
2023-02-18T01:08:58.625Z,52.04
2023-02-18T01:11:25.587Z,52.45
2023-02-18T01:13:52.503Z,51.84
2023-02-18T01:16:19.446Z,51.58
2023-02-18T01:18:46.025Z,52.06
2023-02-18T01:21:12.642Z,52.18
2023-02-18T01:23:40.801Z,51.96
2023-02-18T01:26:08.201Z,51.63
2023-02-18T01:28:35.147Z,51.72
2023-02-18T01:31:07.212Z,52.20
2023-02-18T01:33:34.679Z,51.73
2023-02-18T01:36:01.281Z,51.55
2023-02-18T01:38:27.823Z,51.47
2023-02-18T01:40:54.397Z,51.46
2023-02-18T01:43:22.155Z,51.62
2023-02-18T01:45:54.474Z,52.20
2023-02-18T01:48:47.604Z,52.05
2023-02-18T01:51:16.728Z,51.86
2023-02-18T01:54:16.793Z,51.88
2023-02-18T01:57:12.404Z,51.84
2023-02-18T01:59:56.228Z,51.96
2023-02-18T02:02:26.112Z,52.05
2023-02-18T02:04:53.339Z,52.27
2023-02-18T02:07:22.252Z,52.43
2023-02-18T02:09:51.416Z,52.04
2023-02-18T02:12:33.090Z,51.47
2023-02-18T02:15:32.074Z,52.29
2023-02-18T02:18:16.328Z,51.84
2023-02-18T02:21:20.577Z,52.21
2023-02-18T02:24:17.666Z,51.63
2023-02-18T02:27:08.495Z,51.46
2023-02-18T02:29:44.090Z,52.23
2023-02-18T02:32:32.429Z,51.56
2023-02-18T02:35:08.706Z,51.80
2023-02-18T02:37:54.178Z,52.47
2023-02-18T02:40:42.262Z,51.77
2023-02-18T02:43:17.816Z,52.23
2023-02-18T02:46:03.934Z,52.18
2023-02-18T02:48:55.668Z,51.94
2023-02-18T02:51:28.312Z,52.00
2023-02-18T02:53:55.157Z,51.90
2023-02-18T02:56:24.320Z,52.42
2023-02-18T02:59:02.982Z,51.64
2023-02-18T03:01:56.740Z,51.94
2023-02-18T03:04:31.843Z,52.42
2023-02-18T03:07:14.374Z,52.00
2023-02-18T03:10:00.180Z,51.97
2023-02-18T03:12:26.622Z,52.50
2023-02-18T03:15:07.990Z,52.33
2023-02-18T03:17:55.791Z,52.28
2023-02-18T03:20:36.787Z,51.99
2023-02-18T03:23:09.750Z,52.22
2023-02-18T03:25:37.653Z,52.40
2023-02-18T03:28:15.990Z,51.82
2023-02-18T03:31:05.677Z,51.78
2023-02-18T03:33:44.988Z,52.30
2023-02-18T03:36:12.851Z,52.36
2023-02-18T03:38:45.376Z,51.98
2023-02-18T03:41:12.496Z,51.64
2023-02-18T03:43:41.072Z,51.79
2023-02-18T03:46:08.159Z,52.23
2023-02-18T03:48:34.945Z,52.33
2023-02-18T03:51:01.462Z,52.01
2023-02-18T03:53:27.945Z,52.00
2023-02-18T03:55:54.455Z,51.98
2023-02-18T03:58:20.956Z,52.05
2023-02-18T04:00:47.486Z,52.22
2023-02-18T04:03:13.992Z,51.73
2023-02-18T04:05:40.466Z,52.10
2023-02-18T04:08:06.977Z,52.12
2023-02-18T04:10:33.526Z,52.05
2023-02-18T04:13:00.078Z,52.00
2023-02-18T04:15:26.698Z,51.94
2023-02-18T04:17:53.293Z,52.23
2023-02-18T04:20:19.909Z,52.26
2023-02-18T04:22:46.402Z,51.87
2023-02-18T04:25:12.953Z,52.12
2023-02-18T04:27:39.510Z,52.59
2023-02-18T04:30:06.954Z,52.40
2023-02-18T04:32:33.493Z,52.06
2023-02-18T04:34:59.976Z,52.30
2023-02-18T04:37:26.515Z,52.36
2023-02-18T04:39:53.050Z,52.17
2023-02-18T04:42:19.590Z,52.35
2023-02-18T04:44:47.515Z,52.19
2023-02-18T04:47:14.313Z,52.38
2023-02-18T04:49:41.040Z,52.16
2023-02-18T04:52:07.551Z,52.57
2023-02-18T04:54:34.062Z,51.63
2023-02-18T04:57:00.545Z,51.79
2023-02-18T04:59:27.059Z,52.21
2023-02-18T05:01:53.593Z,52.78
2023-02-18T05:04:20.255Z,52.81
2023-02-18T05:06:46.791Z,52.28
2023-02-18T05:09:13.991Z,52.45
2023-02-18T05:11:40.598Z,51.82
2023-02-18T05:14:07.133Z,52.55
2023-02-18T05:16:33.710Z,52.27
2023-02-18T05:19:00.356Z,52.16
2023-02-18T05:21:26.880Z,52.23
2023-02-18T05:23:53.425Z,52.36
2023-02-18T05:26:19.953Z,52.11
2023-02-18T05:28:46.451Z,52.53
2023-02-18T05:31:13.113Z,52.83
2023-02-18T05:33:39.781Z,52.97
2023-02-18T05:36:06.786Z,52.11
2023-02-18T05:38:33.539Z,52.93
2023-02-18T05:41:00.113Z,52.00
2023-02-18T05:43:26.618Z,52.61
2023-02-18T05:45:53.123Z,52.60
2023-02-18T05:48:19.682Z,52.28
2023-02-18T05:50:46.168Z,52.46
2023-02-18T05:53:12.690Z,53.22
2023-02-18T05:55:39.460Z,52.50
2023-02-18T05:58:06.709Z,52.79
2023-02-18T06:00:33.250Z,52.31
2023-02-18T06:02:59.959Z,53.15
2023-02-18T06:05:26.542Z,52.43
2023-02-18T06:07:54.779Z,52.49
2023-02-18T06:10:22.881Z,53.14
2023-02-18T06:12:49.443Z,52.76
2023-02-18T06:15:16.105Z,53.21
2023-02-18T06:17:42.761Z,52.42
2023-02-18T06:20:09.717Z,52.58
2023-02-18T06:22:36.221Z,53.36
2023-02-18T06:25:02.755Z,52.40
2023-02-18T06:27:29.261Z,53.14
2023-02-18T06:29:55.792Z,52.67
2023-02-18T06:32:22.428Z,52.23
2023-02-18T06:34:49.067Z,52.86
2023-02-18T06:37:15.538Z,52.31
2023-02-18T06:39:42.051Z,53.32
2023-02-18T06:42:08.571Z,52.85
2023-02-18T06:44:37.496Z,53.30
2023-02-18T06:47:04.585Z,52.67
2023-02-18T06:49:31.113Z,53.47
2023-02-18T06:51:57.613Z,53.12
2023-02-18T06:54:25.006Z,53.12
2023-02-18T06:56:51.565Z,52.69
2023-02-18T06:59:18.098Z,53.05
2023-02-18T07:01:44.570Z,53.28
2023-02-18T07:04:11.120Z,53.10
2023-02-18T07:06:37.618Z,53.51
2023-02-18T07:09:04.764Z,53.42
2023-02-18T07:11:31.426Z,52.90
2023-02-18T07:13:57.952Z,52.96
2023-02-18T07:16:24.475Z,52.86
2023-02-18T07:18:51.005Z,53.05
2023-02-18T07:21:17.681Z,53.42
2023-02-18T07:23:44.340Z,53.33
2023-02-18T07:26:12.778Z,53.45
2023-02-18T07:28:40.765Z,53.35
2023-02-18T07:31:08.558Z,53.58
2023-02-18T07:33:35.141Z,52.99
2023-02-18T07:36:02.769Z,53.54
2023-02-18T07:38:29.803Z,53.29
2023-02-18T07:40:57.269Z,53.49
2023-02-18T07:43:24.465Z,53.82
2023-02-18T07:45:50.979Z,53.45
2023-02-18T07:48:17.550Z,53.76
2023-02-18T07:50:45.941Z,53.17
2023-02-18T07:53:14.531Z,53.82
2023-02-18T07:55:49.833Z,53.41
2023-02-18T07:58:17.170Z,53.26
2023-02-18T08:00:44.034Z,53.24
2023-02-18T08:03:10.861Z,53.67
2023-02-18T08:05:37.724Z,53.74
2023-02-18T08:08:04.510Z,53.67
2023-02-18T08:10:31.056Z,52.99
2023-02-18T08:12:57.547Z,53.68
2023-02-18T08:15:24.131Z,52.98
2023-02-18T08:17:50.678Z,53.04
2023-02-18T08:20:17.250Z,53.73
2023-02-18T08:22:44.700Z,53.06
2023-02-18T08:25:20.882Z,53.03
2023-02-18T08:27:54.140Z,53.43
2023-02-18T08:30:20.874Z,52.93
2023-02-18T08:32:47.486Z,53.77
2023-02-18T08:35:14.163Z,54.04
2023-02-18T08:37:53.807Z,54.09
2023-02-18T08:40:21.136Z,53.97
2023-02-18T08:42:47.650Z,54.34
2023-02-18T08:45:14.159Z,54.08
2023-02-18T08:48:17.250Z,54.79
2023-02-18T08:50:28.235Z,54.83
2023-02-18T08:52:55.231Z,54.52
2023-02-18T08:55:21.860Z,55.14
2023-02-18T08:57:49.081Z,55.44
2023-02-18T09:00:17.407Z,55.33
2023-02-18T09:02:44.582Z,55.38
2023-02-18T09:05:12.347Z,55.59
2023-02-18T09:07:38.881Z,55.62
2023-02-18T09:10:06.695Z,55.50
2023-02-18T09:12:33.739Z,55.77
2023-02-18T09:15:00.643Z,55.89
2023-02-18T09:17:27.973Z,55.84
2023-02-18T09:19:54.668Z,56.13
2023-02-18T09:22:21.298Z,56.01
2023-02-18T09:24:47.819Z,55.53
2023-02-18T09:27:14.953Z,56.19
2023-02-18T09:29:41.994Z,55.64
2023-02-18T09:32:09.736Z,55.92
2023-02-18T09:34:36.530Z,56.00
2023-02-18T09:37:03.263Z,55.92
2023-02-18T09:39:29.815Z,55.59
2023-02-18T09:42:00.783Z,55.58
2023-02-18T09:44:39.469Z,55.52
2023-02-18T09:47:14.160Z,55.45
2023-02-18T09:49:46.175Z,54.98
2023-02-18T09:52:14.860Z,55.49
2023-02-18T09:54:41.537Z,54.92
2023-02-18T09:57:22.179Z,55.41
2023-02-18T09:59:56.901Z,55.02
2023-02-18T10:02:24.370Z,55.12
2023-02-18T10:04:54.213Z,54.93
2023-02-18T10:07:29.139Z,55.25
2023-02-18T10:09:57.666Z,55.62
2023-02-18T10:12:26.625Z,55.62
2023-02-18T10:14:56.164Z,55.44
2023-02-18T10:17:28.426Z,55.52
2023-02-18T10:19:56.382Z,55.08
2023-02-18T10:22:25.462Z,55.14
2023-02-18T10:25:02.934Z,55.15
2023-02-18T10:27:29.380Z,55.34
2023-02-18T10:29:59.510Z,54.61
2023-02-18T10:32:41.061Z,54.91
2023-02-18T10:35:23.610Z,54.89
2023-02-18T10:37:53.216Z,54.86
2023-02-18T10:40:32.342Z,54.74
2023-02-18T10:43:13.944Z,55.50
2023-02-18T10:46:01.490Z,55.32
2023-02-18T10:48:49.429Z,55.52
2023-02-18T10:51:21.914Z,54.98
2023-02-18T10:53:51.475Z,55.04
2023-02-18T10:56:32.960Z,54.78
2023-02-18T10:59:24.193Z,54.73
2023-02-18T11:01:58.033Z,54.79
2023-02-18T11:04:35.468Z,54.67
2023-02-18T11:07:25.446Z,54.05
2023-02-18T11:09:58.623Z,54.51
2023-02-18T11:12:46.286Z,54.73
2023-02-18T11:15:16.345Z,54.35
2023-02-18T11:17:46.397Z,54.22
2023-02-18T11:20:30.276Z,54.60
2023-02-18T11:23:16.111Z,54.33
2023-02-18T11:25:54.955Z,54.41
2023-02-18T11:28:21.408Z,54.07
2023-02-18T11:30:54.077Z,54.52
2023-02-18T11:33:26.399Z,54.11
2023-02-18T11:35:55.942Z,54.27
2023-02-18T11:38:37.009Z,54.14
2023-02-18T11:41:09.173Z,54.50
2023-02-18T11:43:36.683Z,54.24
2023-02-18T11:46:11.061Z,54.00
2023-02-18T11:48:38.365Z,53.96
2023-02-18T11:51:07.177Z,54.69
2023-02-18T11:53:36.168Z,54.40
2023-02-18T11:56:16.401Z,54.40
2023-02-18T11:58:48.457Z,54.54
2023-02-18T12:01:36.015Z,54.40
2023-02-18T12:04:35.016Z,54.78
2023-02-18T12:07:26.850Z,54.62
2023-02-18T12:09:58.099Z,54.69
2023-02-18T12:12:33.447Z,54.75
2023-02-18T12:15:00.572Z,54.58
2023-02-18T12:17:59.443Z,54.69
2023-02-18T12:20:38.070Z,54.53
2023-02-18T12:23:26.159Z,54.78
2023-02-18T12:26:07.119Z,54.60
2023-02-18T12:28:54.419Z,54.96
2023-02-18T12:31:26.729Z,54.78
2023-02-18T12:33:55.847Z,55.12
2023-02-18T12:37:07.854Z,54.83
2023-02-18T12:39:58.803Z,54.41
2023-02-18T12:42:45.573Z,54.15
2023-02-18T12:45:42.356Z,54.74
2023-02-18T12:48:42.014Z,54.25
2023-02-18T12:51:34.902Z,54.43
2023-02-18T12:54:21.987Z,54.19
2023-02-18T12:57:27.331Z,54.14
2023-02-18T13:00:15.647Z,54.05
2023-02-18T13:03:00.479Z,53.83
2023-02-18T13:05:29.615Z,54.25
2023-02-18T13:08:05.051Z,53.98
2023-02-18T13:10:58.387Z,53.97
2023-02-18T13:13:28.207Z,54.11
2023-02-18T13:16:13.402Z,54.08
2023-02-18T13:19:07.721Z,54.03
2023-02-18T13:21:36.081Z,54.08
2023-02-18T13:24:07.415Z,53.98
2023-02-18T13:26:34.966Z,54.20
2023-02-18T13:29:16.495Z,54.15
2023-02-18T13:32:10.529Z,54.02
2023-02-18T13:34:42.973Z,54.08
2023-02-18T13:37:18.604Z,53.94
2023-02-18T13:39:51.963Z,54.14
2023-02-18T13:42:18.417Z,54.27
2023-02-18T13:44:57.433Z,54.11
2023-02-18T13:47:44.306Z,54.02
2023-02-18T13:50:22.234Z,54.43
2023-02-18T13:53:01.020Z,54.42
2023-02-18T13:55:47.172Z,54.29
2023-02-18T13:58:21.584Z,54.51
2023-02-18T14:01:03.054Z,54.43
2023-02-18T14:03:33.481Z,54.32
2023-02-18T14:06:00.086Z,54.31
2023-02-18T14:08:37.341Z,54.29
2023-02-18T14:11:12.851Z,54.62
2023-02-18T14:14:15.481Z,54.45
2023-02-18T14:17:13.221Z,54.62
2023-02-18T14:19:40.376Z,54.06
2023-02-18T14:22:32.390Z,54.40
2023-02-18T14:25:17.006Z,54.43
2023-02-18T14:27:44.012Z,54.12
2023-02-18T14:30:41.051Z,54.51
2023-02-18T14:33:15.532Z,54.19
2023-02-18T14:35:57.308Z,54.29
2023-02-18T14:39:01.353Z,54.21
2023-02-18T14:41:47.092Z,54.04
2023-02-18T14:44:34.760Z,54.06
2023-02-18T14:47:07.426Z,53.98
2023-02-18T14:49:33.959Z,54.40
2023-02-18T14:52:01.229Z,53.94
2023-02-18T14:54:30.269Z,54.03
2023-02-18T14:57:00.896Z,54.00
2023-02-18T14:59:31.447Z,53.93
2023-02-18T15:01:58.260Z,54.18
2023-02-18T15:04:26.215Z,54.27
2023-02-18T15:07:04.736Z,53.94
2023-02-18T15:09:31.732Z,54.03
2023-02-18T15:12:04.674Z,54.12
2023-02-18T15:14:37.209Z,53.91
2023-02-18T15:17:05.597Z,54.17
2023-02-18T15:19:42.754Z,54.07
2023-02-18T15:22:21.904Z,54.26
2023-02-18T15:24:50.412Z,54.22
2023-02-18T15:27:23.506Z,53.98
2023-02-18T15:29:52.344Z,54.07
2023-02-18T15:32:21.669Z,53.71
2023-02-18T15:34:54.471Z,53.49
2023-02-18T15:37:21.008Z,53.81
2023-02-18T15:39:48.423Z,53.57
2023-02-18T15:42:35.855Z,53.89
2023-02-18T15:45:22.323Z,53.72
2023-02-18T15:47:55.258Z,53.66
2023-02-18T15:50:26.429Z,53.50
2023-02-18T15:52:54.737Z,53.38
2023-02-18T15:55:31.945Z,53.84
2023-02-18T15:58:05.335Z,53.33
2023-02-18T16:00:41.762Z,53.96
2023-02-18T16:03:31.712Z,53.78
2023-02-18T16:06:29.602Z,53.86
2023-02-18T16:09:01.701Z,53.55
2023-02-18T16:11:35.544Z,53.68
2023-02-18T16:14:02.419Z,53.88
2023-02-18T16:16:33.433Z,53.72
2023-02-18T16:19:01.016Z,53.62
2023-02-18T16:21:38.844Z,53.46
2023-02-18T16:24:40.700Z,53.62
2023-02-18T16:27:17.086Z,53.77
2023-02-18T16:29:44.691Z,53.97
2023-02-18T16:32:11.407Z,53.69
2023-02-18T16:34:38.108Z,54.14
2023-02-18T16:37:23.405Z,53.82
2023-02-18T16:39:51.980Z,54.17
2023-02-18T16:42:18.633Z,54.12
2023-02-18T16:44:45.177Z,54.13
2023-02-18T16:47:16.160Z,54.27
2023-02-18T16:49:45.991Z,54.20
2023-02-18T16:52:16.140Z,54.25
2023-02-18T16:54:43.152Z,54.58
2023-02-18T16:57:11.321Z,54.24
2023-02-18T16:59:37.824Z,54.50
2023-02-18T17:02:04.634Z,54.25
2023-02-18T17:04:31.254Z,54.77
2023-02-18T17:06:57.966Z,54.44
2023-02-18T17:09:27.025Z,54.61
2023-02-18T17:11:55.087Z,54.80
2023-02-18T17:14:23.401Z,54.54
2023-02-18T17:16:53.435Z,54.48
2023-02-18T17:19:23.078Z,54.60
2023-02-18T17:21:49.985Z,54.45
2023-02-18T17:24:18.262Z,54.71
2023-02-18T17:26:45.006Z,54.67
2023-02-18T17:29:11.777Z,54.85
2023-02-18T17:31:41.771Z,54.46
2023-02-18T17:34:12.736Z,54.50
2023-02-18T17:36:45.255Z,54.73
2023-02-18T17:39:14.339Z,54.48
2023-02-18T17:41:41.427Z,54.59
2023-02-18T17:44:22.447Z,54.48
2023-02-18T17:46:52.788Z,54.54
2023-02-18T17:49:19.342Z,54.65
2023-02-18T17:51:45.982Z,54.55
2023-02-18T17:54:14.179Z,54.51
2023-02-18T17:56:41.432Z,54.72
2023-02-18T17:59:08.206Z,54.64
2023-02-18T18:01:34.884Z,54.57
2023-02-18T18:04:01.518Z,54.47
2023-02-18T18:06:28.340Z,54.11
2023-02-18T18:08:54.851Z,54.43
2023-02-18T18:11:23.982Z,54.37
2023-02-18T18:13:52.871Z,54.62
2023-02-18T18:16:19.933Z,54.72
2023-02-18T18:18:46.516Z,54.60
2023-02-18T18:21:23.163Z,54.67
2023-02-18T18:23:50.339Z,54.40
2023-02-18T18:26:17.313Z,54.62
2023-02-18T18:28:44.016Z,54.53
2023-02-18T18:31:18.719Z,54.79
2023-02-18T18:33:48.780Z,54.71
2023-02-18T18:36:16.920Z,54.44
2023-02-18T18:38:43.419Z,54.32
2023-02-18T18:41:18.888Z,54.47
2023-02-18T18:43:46.033Z,54.79
2023-02-18T18:46:12.674Z,54.48
2023-02-18T18:48:39.280Z,54.97
2023-02-18T18:51:06.144Z,54.61
2023-02-18T18:53:35.810Z,54.66
2023-02-18T18:56:06.671Z,54.82
2023-02-18T18:58:33.686Z,54.88
2023-02-18T19:01:05.478Z,54.82
2023-02-18T19:03:33.908Z,54.75
2023-02-18T19:06:00.466Z,54.50
2023-02-18T19:08:27.109Z,54.99
2023-02-18T19:10:55.921Z,54.99
2023-02-18T19:13:30.926Z,54.64
2023-02-18T19:16:18.024Z,54.78
2023-02-18T19:18:44.798Z,54.90
2023-02-18T19:21:12.432Z,54.68
2023-02-18T19:23:39.841Z,54.69
2023-02-18T19:26:07.650Z,54.59
2023-02-18T19:28:34.764Z,54.76
2023-02-18T19:31:01.448Z,54.97
2023-02-18T19:33:28.248Z,54.73
2023-02-18T19:35:54.763Z,54.98
2023-02-18T19:38:21.361Z,54.52
2023-02-18T19:40:48.245Z,54.76
2023-02-18T19:43:14.781Z,54.73
2023-02-18T19:45:43.668Z,55.02
2023-02-18T19:48:11.879Z,54.45
2023-02-18T19:50:40.654Z,54.91
2023-02-18T19:53:07.388Z,54.85
2023-02-18T19:55:34.447Z,54.80
2023-02-18T19:58:01.000Z,55.08
2023-02-18T20:00:27.548Z,54.94
2023-02-18T20:02:54.155Z,54.70
2023-02-18T20:05:20.811Z,54.86
2023-02-18T20:07:47.408Z,54.99
2023-02-18T20:10:17.378Z,55.03
2023-02-18T20:12:43.981Z,54.97
2023-02-18T20:17:39.389Z,54.70
2023-02-18T20:20:07.533Z,54.86
2023-02-18T20:22:34.486Z,54.80
2023-02-18T20:25:01.164Z,54.79
2023-02-18T20:27:27.727Z,55.12
2023-02-18T20:29:54.327Z,54.66
2023-02-18T20:32:20.863Z,54.91
2023-02-18T20:34:47.613Z,54.78
2023-02-18T20:37:14.160Z,55.17
2023-02-18T20:39:40.812Z,54.85
2023-02-18T20:42:16.004Z,54.86
2023-02-18T20:44:43.805Z,54.78
2023-02-18T20:47:10.543Z,55.06
2023-02-18T20:49:37.121Z,54.86
2023-02-18T20:52:03.813Z,54.79
2023-02-18T20:54:30.579Z,55.15
2023-02-18T20:56:57.109Z,55.32
2023-02-18T20:59:24.038Z,54.93
2023-02-18T21:01:50.659Z,55.20
2023-02-18T21:04:19.702Z,55.01
2023-02-18T21:06:47.456Z,55.39
2023-02-18T21:09:15.784Z,55.07
2023-02-18T21:11:43.099Z,55.19
2023-02-18T21:14:10.479Z,55.60
2023-02-18T21:16:40.448Z,55.70
2023-02-18T21:19:11.136Z,55.50
2023-02-18T21:21:37.705Z,55.45
2023-02-18T21:24:04.539Z,55.50
2023-02-18T21:26:31.053Z,55.65
2023-02-18T21:29:00.964Z,55.18
2023-02-18T21:31:30.741Z,55.73
2023-02-18T21:33:57.780Z,55.76
2023-02-18T21:36:25.283Z,55.66
2023-02-18T21:38:56.960Z,55.71
2023-02-18T21:41:24.006Z,55.60
2023-02-18T21:43:50.972Z,55.70
2023-02-18T21:46:20.314Z,55.77
2023-02-18T21:49:02.212Z,55.71
2023-02-18T21:51:49.244Z,55.58
2023-02-18T21:54:17.124Z,55.90
2023-02-18T21:56:43.762Z,55.51
2023-02-18T21:59:10.399Z,55.36
2023-02-18T22:01:36.971Z,55.41
2023-02-18T22:04:03.698Z,55.75
2023-02-18T22:06:30.190Z,55.52
2023-02-18T22:08:59.107Z,55.83
2023-02-18T22:11:25.590Z,55.21
2023-02-18T22:13:52.242Z,55.48
2023-02-18T22:16:18.759Z,55.17
2023-02-18T22:18:45.278Z,55.52
2023-02-18T22:21:11.979Z,55.25
2023-02-18T22:23:38.728Z,55.52
2023-02-18T22:26:07.882Z,55.13
2023-02-18T22:28:35.027Z,55.42
2023-02-18T22:31:10.108Z,55.56
2023-02-18T22:33:36.785Z,55.38
2023-02-18T22:36:05.419Z,55.16
2023-02-18T22:38:33.878Z,55.04
2023-02-18T22:41:04.508Z,55.50
2023-02-18T22:43:31.060Z,55.24
2023-02-18T22:46:02.049Z,55.01
2023-02-18T22:48:30.319Z,55.33
2023-02-18T22:50:56.846Z,55.31
2023-02-18T22:53:23.384Z,55.03
2023-02-18T22:55:49.940Z,55.07
2023-02-18T22:58:16.497Z,55.08
2023-02-18T23:00:43.052Z,55.13
2023-02-18T23:03:09.579Z,54.97
2023-02-18T23:05:36.129Z,55.20
2023-02-18T23:08:04.307Z,55.15
2023-02-18T23:10:32.370Z,55.51
2023-02-18T23:12:58.973Z,55.00
2023-02-18T23:15:25.707Z,55.03
2023-02-18T23:17:52.230Z,54.78
2023-02-18T23:20:38.850Z,55.10
2023-02-18T23:23:05.402Z,55.04
2023-02-18T23:25:32.319Z,55.39
2023-02-18T23:27:59.056Z,55.12
2023-02-18T23:30:25.761Z,55.29
2023-02-18T23:32:52.425Z,55.14
2023-02-18T23:35:18.941Z,54.99
2023-02-18T23:38:03.926Z,55.20
2023-02-18T23:40:30.647Z,54.98
2023-02-18T23:42:57.388Z,55.24
2023-02-18T23:45:24.196Z,55.36
2023-02-18T23:47:50.671Z,55.08
2023-02-18T23:50:17.207Z,55.31
2023-02-18T23:52:43.865Z,54.86
2023-02-18T23:55:10.636Z,54.91
2023-02-18T23:57:37.127Z,55.32
